createdAt,value
2023-03-28T00:00:58.288Z,5.10
2023-03-28T00:03:29.270Z,5.00
2023-03-28T00:05:58.010Z,5.40
2023-03-28T00:08:28.712Z,4.80
2023-03-28T00:11:23.152Z,5.30
2023-03-28T00:13:58.156Z,4.70
2023-03-28T00:16:32.602Z,5.90
2023-03-28T00:19:01.620Z,4.90
2023-03-28T00:21:31.098Z,5.00
2023-03-28T00:24:02.567Z,4.90
2023-03-28T00:26:32.508Z,5.20
2023-03-28T00:29:03.555Z,4.70
2023-03-28T00:31:32.426Z,5.40
2023-03-28T00:34:00.480Z,4.90
2023-03-28T00:36:29.850Z,4.60
2023-03-28T00:39:01.787Z,5.80
2023-03-28T00:41:33.626Z,5.20
2023-03-28T00:44:02.096Z,4.80
2023-03-28T00:46:35.798Z,5.10
2023-03-28T00:49:05.960Z,5.20
2023-03-28T00:51:35.652Z,4.80
2023-03-28T00:54:04.213Z,5.70
2023-03-28T00:56:34.389Z,4.90
2023-03-28T00:59:03.875Z,6.90
2023-03-28T01:01:31.913Z,6.10
2023-03-28T01:04:05.761Z,5.70
2023-03-28T01:06:35.576Z,4.90
2023-03-28T01:09:04.712Z,5.50
2023-03-28T01:11:33.246Z,5.20
2023-03-28T01:14:02.704Z,5.10
2023-03-28T01:16:31.108Z,6.00
2023-03-28T01:19:02.333Z,5.80
2023-03-28T01:21:39.268Z,5.80
2023-03-28T01:24:12.622Z,5.50
2023-03-28T01:26:56.520Z,5.80
2023-03-28T01:29:27.910Z,5.70
2023-03-28T01:32:02.054Z,5.40
2023-03-28T01:35:12.701Z,6.10
2023-03-28T01:37:44.578Z,5.00
2023-03-28T01:40:23.365Z,6.20
2023-03-28T01:42:59.334Z,6.30
2023-03-28T01:45:31.218Z,5.90
2023-03-28T01:47:59.592Z,5.60
2023-03-28T01:50:36.023Z,5.70
2023-03-28T01:53:04.114Z,5.50
2023-03-28T01:55:41.771Z,5.80
2023-03-28T01:58:13.708Z,5.30
2023-03-28T02:00:46.215Z,5.30
2023-03-28T02:03:21.808Z,5.40
2023-03-28T02:05:57.223Z,6.10
2023-03-28T02:08:26.667Z,6.10
2023-03-28T02:11:16.483Z,5.60
2023-03-28T02:14:21.050Z,6.00
2023-03-28T02:17:02.037Z,5.40
2023-03-28T02:19:59.976Z,6.00
2023-03-28T02:22:47.883Z,6.40
2023-03-28T02:25:39.239Z,6.70
2023-03-28T02:28:34.707Z,6.40
2023-03-28T02:31:25.483Z,6.70
2023-03-28T02:33:53.668Z,7.10
2023-03-28T02:36:23.962Z,7.10
2023-03-28T02:39:10.789Z,7.40
2023-03-28T02:41:59.656Z,7.10
2023-03-28T02:44:27.724Z,7.20
2023-03-28T02:47:05.319Z,6.20
2023-03-28T02:49:43.755Z,6.30
2023-03-28T02:52:23.798Z,7.50
2023-03-28T02:54:53.192Z,7.30
2023-03-28T02:57:46.780Z,7.30
2023-03-28T03:00:16.811Z,7.00
2023-03-28T03:02:45.518Z,6.80
2023-03-28T03:05:14.035Z,6.50
2023-03-28T03:07:42.487Z,5.70
2023-03-28T03:10:17.244Z,5.50
2023-03-28T03:12:47.486Z,6.10
2023-03-28T03:15:18.490Z,6.70
2023-03-28T03:17:58.862Z,6.70
2023-03-28T03:20:34.308Z,7.00
2023-03-28T03:23:06.345Z,6.20
2023-03-28T03:25:35.038Z,5.70
2023-03-28T03:28:29.274Z,5.80
2023-03-28T03:30:58.594Z,7.00
2023-03-28T03:33:46.108Z,6.40
2023-03-28T03:36:19.018Z,6.80
2023-03-28T03:38:48.105Z,5.70
2023-03-28T03:41:20.575Z,6.20
2023-03-28T03:43:50.986Z,7.00
2023-03-28T03:46:19.017Z,6.40
2023-03-28T03:48:50.551Z,7.00
2023-03-28T03:51:18.930Z,6.90
2023-03-28T03:53:50.667Z,6.40
2023-03-28T03:56:21.412Z,6.30
2023-03-28T03:58:53.454Z,7.10
2023-03-28T04:01:30.357Z,7.00
2023-03-28T04:04:08.664Z,6.60
2023-03-28T04:06:54.268Z,7.30
2023-03-28T04:09:32.439Z,7.50
2023-03-28T04:12:05.472Z,8.30
2023-03-28T04:14:36.092Z,7.00
2023-03-28T04:17:30.147Z,8.10
2023-03-28T04:19:59.904Z,7.20
2023-03-28T04:22:30.958Z,8.10
2023-03-28T04:24:59.210Z,7.30
2023-03-28T04:27:38.004Z,7.90
2023-03-28T04:30:07.331Z,7.90
2023-03-28T04:33:18.837Z,7.60
2023-03-28T04:35:48.852Z,8.60
2023-03-28T04:38:21.880Z,7.90
2023-03-28T04:41:01.071Z,7.60
2023-03-28T04:43:49.700Z,8.10
2023-03-28T04:46:18.437Z,8.00
2023-03-28T04:48:47.306Z,8.20
2023-03-28T04:51:20.459Z,9.40
2023-03-28T04:53:49.364Z,8.80
2023-03-28T04:56:36.627Z,9.40
2023-03-28T04:59:06.730Z,10.30
2023-03-28T05:01:35.266Z,10.60
2023-03-28T05:04:23.783Z,11.20
2023-03-28T05:06:51.974Z,11.20
2023-03-28T05:09:20.004Z,11.40
2023-03-28T05:11:48.515Z,10.50
2023-03-28T05:14:16.492Z,11.70
2023-03-28T05:19:58.133Z,9.00
2023-03-28T05:22:54.487Z,8.80
2023-03-28T05:25:23.188Z,9.00
2023-03-28T05:27:51.674Z,9.70
2023-03-28T05:31:09.598Z,10.80
2023-03-28T05:33:38.631Z,10.40
2023-03-28T05:38:52.021Z,10.30
2023-03-28T05:41:22.706Z,9.30
2023-03-28T05:43:51.434Z,9.80
2023-03-28T05:46:32.113Z,10.80
2023-03-28T05:49:03.933Z,11.20
2023-03-28T05:51:32.703Z,11.00
2023-03-28T05:54:20.682Z,10.80
2023-03-28T05:56:53.193Z,9.70
2023-03-28T05:59:25.734Z,10.40
2023-03-28T06:01:57.697Z,9.90
2023-03-28T06:04:39.531Z,9.90
2023-03-28T06:07:12.205Z,11.40
2023-03-28T06:09:40.781Z,12.30
2023-03-28T06:12:10.255Z,11.80
2023-03-28T06:14:45.325Z,12.00
2023-03-28T06:17:35.569Z,11.10
2023-03-28T06:20:06.839Z,11.60
2023-03-28T06:25:08.422Z,11.50
2023-03-28T06:27:37.396Z,11.30
2023-03-28T06:30:05.768Z,11.40
2023-03-28T06:32:40.601Z,10.20
2023-03-28T06:35:08.667Z,18.50
2023-03-28T06:37:37.002Z,11.40
2023-03-28T06:40:08.684Z,11.10
2023-03-28T06:42:36.835Z,10.20
2023-03-28T06:45:37.357Z,10.20
2023-03-28T06:48:09.588Z,10.90
2023-03-28T06:50:56.159Z,11.10
2023-03-28T06:53:26.816Z,13.50
2023-03-28T06:55:55.816Z,12.70
2023-03-28T06:58:26.194Z,12.30
2023-03-28T07:00:59.550Z,12.90
2023-03-28T07:03:50.716Z,13.10
2023-03-28T07:06:22.129Z,12.20
2023-03-28T07:08:50.940Z,13.10
2023-03-28T07:11:21.709Z,14.00
2023-03-28T07:13:56.296Z,13.30
2023-03-28T07:16:26.106Z,14.50
2023-03-28T07:18:58.403Z,13.10
2023-03-28T07:21:46.874Z,11.00
2023-03-28T07:24:16.026Z,12.50
2023-03-28T07:29:37.148Z,12.60
2023-03-28T07:32:05.747Z,11.30
2023-03-28T07:34:33.717Z,12.00
2023-03-28T07:37:02.323Z,10.90
2023-03-28T07:39:57.304Z,12.00
2023-03-28T07:42:27.244Z,12.30
2023-03-28T07:44:56.332Z,11.10
2023-03-28T07:47:24.266Z,11.80
2023-03-28T07:49:52.526Z,11.10
2023-03-28T07:52:20.823Z,11.10
2023-03-28T07:54:48.993Z,11.80
2023-03-28T07:57:17.045Z,11.60
2023-03-28T07:59:57.610Z,11.40
2023-03-28T08:02:26.142Z,11.40
2023-03-28T08:04:55.769Z,11.70
2023-03-28T08:07:47.225Z,11.90
2023-03-28T08:10:15.384Z,12.10
2023-03-28T08:12:47.790Z,12.30
2023-03-28T08:15:18.943Z,10.70
2023-03-28T08:18:07.360Z,9.10
2023-03-28T08:20:41.114Z,11.10
2023-03-28T08:23:14.727Z,12.00
2023-03-28T08:26:04.749Z,14.10
2023-03-28T08:28:33.720Z,12.80
2023-03-28T08:31:02.301Z,11.60
2023-03-28T08:33:33.054Z,11.50
2023-03-28T08:36:02.675Z,12.10
2023-03-28T08:38:51.038Z,9.90
2023-03-28T08:41:19.176Z,10.10
2023-03-28T08:43:57.572Z,10.30
2023-03-28T08:46:26.216Z,11.40
2023-03-28T08:48:54.300Z,10.70
2023-03-28T08:51:41.370Z,9.40
2023-03-28T08:54:29.016Z,10.20
2023-03-28T08:56:57.533Z,10.30
2023-03-28T08:59:27.052Z,9.70
2023-03-28T09:01:55.198Z,9.90
2023-03-28T09:04:36.289Z,8.80
2023-03-28T09:07:17.451Z,8.70
2023-03-28T09:10:04.643Z,9.00
2023-03-28T09:13:24.720Z,7.80
2023-03-28T09:16:20.340Z,7.80
2023-03-28T09:19:11.055Z,8.50
2023-03-28T09:21:43.930Z,7.50
2023-03-28T09:24:19.025Z,7.90
2023-03-28T09:27:06.866Z,11.10
2023-03-28T09:29:38.320Z,9.20
2023-03-28T09:32:24.981Z,10.30
2023-03-28T09:34:53.478Z,9.10
2023-03-28T09:37:28.078Z,9.40
2023-03-28T09:40:00.875Z,8.60
2023-03-28T09:42:39.156Z,8.70
2023-03-28T09:45:30.512Z,8.40
2023-03-28T09:48:24.713Z,9.90
2023-03-28T09:50:52.922Z,11.00
2023-03-28T09:53:27.521Z,10.10
2023-03-28T09:56:04.424Z,8.30
2023-03-28T09:58:57.876Z,6.60
2023-03-28T10:04:52.208Z,6.90
2023-03-28T10:07:30.106Z,8.80
2023-03-28T10:10:08.603Z,7.20
2023-03-28T10:12:37.983Z,6.50
2023-03-28T10:15:08.976Z,5.90
2023-03-28T10:18:19.664Z,6.10
2023-03-28T10:21:22.072Z,6.20
2023-03-28T10:23:56.864Z,6.20
2023-03-28T10:26:26.834Z,5.80
2023-03-28T10:28:57.892Z,5.50
2023-03-28T10:31:29.741Z,5.50
2023-03-28T10:34:10.623Z,5.10
2023-03-28T10:36:55.474Z,5.90
2023-03-28T10:39:29.458Z,5.00
2023-03-28T10:42:18.082Z,6.10
2023-03-28T10:45:00.988Z,5.20
2023-03-28T10:47:31.468Z,5.10
2023-03-28T10:50:03.960Z,5.20
2023-03-28T10:52:43.882Z,4.90
2023-03-28T10:55:14.050Z,5.00
2023-03-28T10:58:21.987Z,4.30
2023-03-28T11:00:53.205Z,4.50
2023-03-28T11:03:42.634Z,5.30
2023-03-28T11:06:11.304Z,4.60
2023-03-28T11:08:46.063Z,4.80
2023-03-28T11:11:19.877Z,5.00
2023-03-28T11:14:12.532Z,5.40
2023-03-28T11:16:50.952Z,4.90
2023-03-28T11:19:44.215Z,4.20
2023-03-28T11:22:19.935Z,4.90
2023-03-28T11:24:55.618Z,4.80
2023-03-28T11:27:34.862Z,3.90
2023-03-28T11:30:16.000Z,4.10
2023-03-28T11:32:57.780Z,4.50
2023-03-28T11:35:31.868Z,5.70
2023-03-28T11:38:02.538Z,4.60
2023-03-28T11:40:34.966Z,4.80
2023-03-28T11:43:07.367Z,4.30
2023-03-28T11:45:52.681Z,4.90
2023-03-28T11:48:26.989Z,4.00
2023-03-28T11:50:58.609Z,4.00
2023-03-28T11:53:43.885Z,3.60
2023-03-28T11:56:28.101Z,3.60
2023-03-28T11:59:09.148Z,4.50
2023-03-28T12:04:21.010Z,3.80
2023-03-28T12:07:08.979Z,3.60
2023-03-28T12:09:57.787Z,3.80
2023-03-28T12:12:38.882Z,5.00
2023-03-28T12:15:17.391Z,4.60
2023-03-28T12:17:53.226Z,3.90
2023-03-28T12:20:29.239Z,4.00
2023-03-28T12:23:03.770Z,4.00
2023-03-28T12:25:56.594Z,4.80
2023-03-28T12:28:34.000Z,4.10
2023-03-28T12:31:07.375Z,3.80
2023-03-28T12:34:03.820Z,4.00
2023-03-28T12:36:54.172Z,3.90
2023-03-28T12:39:41.389Z,3.80
2023-03-28T12:42:19.303Z,3.80
2023-03-28T12:45:01.218Z,3.80
2023-03-28T12:47:30.982Z,2.90
2023-03-28T12:50:00.034Z,5.70
2023-03-28T12:52:29.212Z,2.30
2023-03-28T12:55:02.766Z,2.80
2023-03-28T12:57:47.056Z,2.40
2023-03-28T13:00:50.731Z,2.70
2023-03-28T13:03:41.517Z,2.50
2023-03-28T13:06:19.749Z,2.30
2023-03-28T13:08:47.822Z,2.50
2023-03-28T13:11:31.744Z,2.10
2023-03-28T13:14:19.361Z,2.50
2023-03-28T13:16:48.056Z,2.80
2023-03-28T13:19:18.646Z,3.00
2023-03-28T13:21:50.454Z,2.90
2023-03-28T13:24:31.589Z,2.60
2023-03-28T13:27:12.432Z,2.50
2023-03-28T13:29:44.588Z,2.30
2023-03-28T13:32:16.759Z,4.60
2023-03-28T13:34:49.006Z,2.90
2023-03-28T13:37:43.495Z,6.60
2023-03-28T13:40:34.835Z,6.70
2023-03-28T13:43:02.790Z,7.30
2023-03-28T13:45:31.472Z,6.50
2023-03-28T13:48:12.124Z,5.10
2023-03-28T13:53:09.572Z,4.90
2023-03-28T13:55:39.033Z,4.10
2023-03-28T13:58:09.687Z,8.00
2023-03-28T14:00:39.519Z,3.90
2023-03-28T14:03:14.502Z,4.20
2023-03-28T14:05:44.306Z,7.60
2023-03-28T14:08:15.930Z,5.60
2023-03-28T14:13:37.397Z,9.70
2023-03-28T14:16:06.132Z,7.20
2023-03-28T14:18:35.442Z,5.10
2023-03-28T14:21:06.688Z,4.80
2023-03-28T14:23:36.089Z,3.50
2023-03-28T14:26:08.418Z,3.90
2023-03-28T14:28:39.066Z,3.10
2023-03-28T14:31:12.325Z,4.00
2023-03-28T14:33:51.005Z,3.40
2023-03-28T14:36:41.608Z,3.30
2023-03-28T14:39:13.841Z,2.60
2023-03-28T14:41:42.098Z,2.80
2023-03-28T14:44:12.193Z,6.70
2023-03-28T14:46:40.558Z,6.20
2023-03-28T14:49:10.572Z,3.80
2023-03-28T14:51:58.193Z,3.80
2023-03-28T14:54:35.074Z,4.30
2023-03-28T14:57:04.110Z,4.00
2023-03-28T14:59:34.693Z,4.30
2023-03-28T15:02:04.635Z,2.40
2023-03-28T15:04:33.211Z,5.60
2023-03-28T15:07:01.807Z,3.70
2023-03-28T15:09:31.521Z,3.90
2023-03-28T15:12:04.414Z,3.70
2023-03-28T15:14:38.594Z,6.70
2023-03-28T15:17:07.534Z,5.10
2023-03-28T15:19:38.494Z,5.20
2023-03-28T15:22:13.702Z,5.00
2023-03-28T15:24:44.188Z,3.80
2023-03-28T15:27:31.316Z,5.20
2023-03-28T15:29:59.998Z,3.90
2023-03-28T15:32:28.144Z,5.10
2023-03-28T15:39:16.160Z,4.60
2023-03-28T15:41:47.533Z,4.10
2023-03-28T15:44:38.437Z,3.50
2023-03-28T15:47:12.391Z,5.30
2023-03-28T15:49:40.645Z,4.80
2023-03-28T15:52:15.215Z,3.70
2023-03-28T15:54:45.128Z,4.90
2023-03-28T15:57:17.323Z,5.30
2023-03-28T15:59:48.634Z,8.80
2023-03-28T16:02:26.625Z,8.90
2023-03-28T16:05:09.758Z,10.80
2023-03-28T16:07:43.773Z,3.20
2023-03-28T16:10:13.408Z,6.80
2023-03-28T16:12:57.776Z,7.50
2023-03-28T16:15:42.888Z,6.20
2023-03-28T16:18:28.560Z,4.10
2023-03-28T16:20:58.311Z,4.40
2023-03-28T16:23:27.268Z,3.30
2023-03-28T16:25:56.036Z,3.10
2023-03-28T16:28:23.982Z,3.80
2023-03-28T16:30:53.525Z,3.10
2023-03-28T16:33:22.190Z,2.80
2023-03-28T16:35:58.327Z,2.90
2023-03-28T16:38:57.938Z,2.70
2023-03-28T16:41:44.687Z,2.60
2023-03-28T16:44:12.634Z,2.80
2023-03-28T16:46:45.052Z,4.70
2023-03-28T16:49:19.055Z,6.00
2023-03-28T16:52:19.433Z,4.90
2023-03-28T16:55:12.151Z,2.40
2023-03-28T17:01:33.710Z,2.90
2023-03-28T17:04:01.812Z,2.60
2023-03-28T17:06:30.317Z,4.00
2023-03-28T17:08:59.064Z,3.80
2023-03-28T17:11:27.694Z,2.40
2023-03-28T17:13:56.267Z,2.70
2023-03-28T17:16:24.589Z,2.80
2023-03-28T17:18:54.251Z,4.60
2023-03-28T17:21:34.063Z,3.00
2023-03-28T17:24:32.721Z,3.90
2023-03-28T17:27:13.802Z,3.20
2023-03-28T17:29:41.906Z,6.90
2023-03-28T17:32:11.792Z,7.40
2023-03-28T17:34:41.431Z,6.20
2023-03-28T17:37:28.529Z,3.90
2023-03-28T17:40:30.099Z,3.80
2023-03-28T17:46:21.845Z,8.50
2023-03-28T17:48:49.845Z,6.70
2023-03-28T17:54:29.837Z,4.90
2023-03-28T17:56:59.316Z,3.90
2023-03-28T17:59:29.298Z,5.00
2023-03-28T18:01:57.410Z,3.10
2023-03-28T18:04:37.896Z,4.60
2023-03-28T18:11:17.704Z,3.10
2023-03-28T18:13:57.204Z,3.60
2023-03-28T18:22:38.682Z,4.00
2023-03-28T18:28:51.785Z,3.10
2023-03-28T18:34:47.149Z,2.90
2023-03-28T18:37:16.704Z,2.90
2023-03-28T18:39:45.561Z,3.30
2023-03-28T18:42:16.076Z,2.80
2023-03-28T18:44:44.347Z,2.60
2023-03-28T18:47:13.564Z,2.60
2023-03-28T18:49:48.544Z,3.30
2023-03-28T18:52:16.783Z,3.60
2023-03-28T18:54:46.866Z,4.00
2023-03-28T18:57:15.235Z,4.10
2023-03-28T18:59:46.176Z,3.30
2023-03-28T19:02:15.408Z,4.00
2023-03-28T19:04:43.444Z,3.60
2023-03-28T19:07:13.471Z,3.60
2023-03-28T19:09:42.536Z,2.60
2023-03-28T19:12:11.829Z,3.40
2023-03-28T19:14:42.089Z,3.70
2023-03-28T19:17:10.109Z,3.30
2023-03-28T19:19:38.505Z,3.20
2023-03-28T19:22:07.397Z,3.30
2023-03-28T19:24:35.730Z,3.30
2023-03-28T19:27:05.232Z,3.60
2023-03-28T19:29:34.059Z,3.60
2023-03-28T19:32:02.071Z,4.30
2023-03-28T19:34:30.109Z,5.40
2023-03-28T19:36:58.098Z,4.50
2023-03-28T19:39:26.102Z,3.50
2023-03-28T19:41:55.845Z,4.50
2023-03-28T19:44:29.472Z,3.40
2023-03-28T19:47:12.218Z,2.80
2023-03-28T19:49:43.370Z,2.90
2023-03-28T19:52:16.806Z,2.40
2023-03-28T19:54:48.617Z,2.80
2023-03-28T19:57:33.037Z,4.20
2023-03-28T20:00:02.834Z,3.10
2023-03-28T20:02:47.183Z,3.00
2023-03-28T20:05:16.231Z,3.60
2023-03-28T20:07:44.318Z,3.10
2023-03-28T20:10:12.250Z,3.40
2023-03-28T20:12:41.489Z,4.20
2023-03-28T20:16:00.648Z,2.90
2023-03-28T20:18:57.008Z,2.80
2023-03-28T20:21:29.153Z,3.10
2023-03-28T20:24:01.431Z,3.70
2023-03-28T20:26:30.146Z,4.50
2023-03-28T20:29:07.193Z,9.70
2023-03-28T20:31:36.712Z,7.30
2023-03-28T20:34:07.317Z,4.60
2023-03-28T20:36:36.364Z,3.40
2023-03-28T20:39:04.412Z,3.30
2023-03-28T20:41:32.400Z,2.90
2023-03-28T20:44:03.637Z,3.10
2023-03-28T20:46:34.707Z,4.40
2023-03-28T20:52:02.226Z,2.90
2023-03-28T20:54:33.354Z,2.90
2023-03-28T20:57:26.397Z,3.10
2023-03-28T20:59:58.976Z,3.20
2023-03-28T21:02:33.428Z,2.90
2023-03-28T21:05:03.517Z,3.40
2023-03-28T21:07:31.778Z,4.20
2023-03-28T21:10:10.101Z,2.60
2023-03-28T21:12:53.735Z,3.10
2023-03-28T21:15:35.158Z,3.80
2023-03-28T21:18:11.213Z,3.70
2023-03-28T21:20:47.741Z,3.10
2023-03-28T21:23:34.906Z,3.00
2023-03-28T21:26:26.531Z,3.20
2023-03-28T21:29:03.434Z,3.20
2023-03-28T21:31:38.327Z,3.50
2023-03-28T21:34:23.559Z,3.30
2023-03-28T21:37:03.361Z,2.90
2023-03-28T21:39:48.456Z,2.80
2023-03-28T21:42:32.903Z,3.30
2023-03-28T21:45:05.671Z,5.00
2023-03-28T21:47:39.821Z,4.00
2023-03-28T21:50:31.518Z,4.00
2023-03-28T21:53:16.049Z,3.00
2023-03-28T21:55:54.267Z,3.20
2023-03-28T21:58:26.508Z,3.40
2023-03-28T22:00:56.047Z,3.40
2023-03-28T22:03:25.390Z,3.70
2023-03-28T22:08:54.396Z,3.20
2023-03-28T22:11:37.799Z,3.50
2023-03-28T22:14:18.069Z,3.60
2023-03-28T22:17:10.990Z,4.70
2023-03-28T22:19:45.371Z,4.60
2023-03-28T22:22:13.340Z,4.60
2023-03-28T22:24:41.345Z,5.50
2023-03-28T22:27:09.781Z,4.20
2023-03-28T22:29:38.545Z,6.30
2023-03-28T22:34:48.247Z,4.40
2023-03-28T22:37:16.860Z,4.80
2023-03-28T22:39:45.552Z,4.20
2023-03-28T22:42:13.842Z,3.40
2023-03-28T22:44:42.417Z,3.30
2023-03-28T22:47:12.156Z,4.10
2023-03-28T22:49:40.491Z,3.70
2023-03-28T22:52:08.967Z,3.70
2023-03-28T22:54:37.325Z,2.60
2023-03-28T22:57:05.920Z,3.10
2023-03-28T22:59:36.375Z,2.70
2023-03-28T23:02:04.619Z,2.80
2023-03-28T23:04:54.313Z,3.00
2023-03-28T23:07:22.287Z,4.00
2023-03-28T23:09:50.322Z,4.00
2023-03-28T23:12:19.434Z,5.40
2023-03-28T23:14:48.667Z,5.50
2023-03-28T23:17:19.489Z,4.40
2023-03-28T23:19:49.899Z,4.10
2023-03-28T23:22:18.357Z,3.70
2023-03-28T23:24:52.188Z,3.60
2023-03-28T23:27:20.563Z,3.40
2023-03-28T23:29:48.582Z,2.90
2023-03-28T23:32:16.971Z,3.40
2023-03-28T23:34:45.119Z,3.20
2023-03-28T23:37:14.177Z,4.50
2023-03-28T23:39:42.317Z,3.10
2023-03-28T23:42:10.241Z,3.70
2023-03-28T23:44:38.209Z,3.80
2023-03-28T23:47:20.458Z,3.40
2023-03-28T23:49:49.745Z,2.30
2023-03-28T23:52:17.703Z,2.50
2023-03-28T23:54:45.710Z,3.10
2023-03-28T23:57:14.249Z,3.90
2023-03-28T23:59:42.408Z,6.80
